Time;durP1;ratioP1;P1;durP2;ratioP2;P2;SDS_P1;SDS_P2;PMS_P1;PMS_P2;Temp;Humidity;BMP_temperature;BMP_pressure;BME280_temperature;BME280_humidity;BME280_pressure;Samples;Min_cycle;Max_cycle;Signal;HPM_P1;HPM_P2
2023/10/11 00:02:22;;;;;;;27.90;12.30;;;;;;;12.72;100.00;100420.66;110458;1275;23197;-76
2023/10/11 00:04:53;;;;;;;24.80;11.20;;;;;;;12.72;100.00;100423.92;110490;1269;22138;-76
2023/10/11 00:07:27;;;;;;;27.20;10.50;;;;;;;12.70;100.00;100427.16;110636;1269;22157;-75
2023/10/11 00:09:57;;;;;;;25.50;10.70;;;;;;;12.69;100.00;100425.81;110582;1275;22378;-75
2023/10/11 00:12:29;;;;;;;23.70;10.30;;;;;;;12.69;100.00;100420.11;110458;1269;22311;-75
2023/10/11 00:15:00;;;;;;;26.10;11.00;;;;;;;12.70;100.00;100417.06;110372;1275;23272;-75
2023/10/11 00:17:30;;;;;;;23.20;10.40;;;;;;;12.71;100.00;100416.00;110399;1268;22931;-75
2023/10/11 00:20:11;;;;;;;23.50;10.40;;;;;;;12.71;100.00;100414.13;110388;1270;22410;-75
2023/10/11 00:22:42;;;;;;;24.10;9.30;;;;;;;12.71;100.00;100411.88;110365;1275;22304;-75
2023/10/11 00:25:23;;;;;;;24.70;11.30;;;;;;;12.71;100.00;100408.12;110432;1269;23309;-75
2023/10/11 00:27:56;;;;;;;22.90;10.10;;;;;;;12.73;100.00;100410.38;110345;1272;22372;-75
2023/10/11 00:30:29;;;;;;;21.10;9.80;;;;;;;12.73;100.00;100404.36;110386;1275;22210;-76
2023/10/11 00:33:00;;;;;;;28.60;11.30;;;;;;;12.73;100.00;100400.97;110390;1273;22336;-76
2023/10/11 00:35:32;;;;;;;27.40;8.90;;;;;;;12.74;100.00;100398.68;110369;1275;22403;-76
2023/10/11 00:38:05;;;;;;;23.30;10.20;;;;;;;12.74;100.00;100393.65;110360;1275;22219;-76
2023/10/11 00:40:36;;;;;;;23.90;11.50;;;;;;;12.74;100.00;100388.66;110395;1269;22158;-76
2023/10/11 00:43:07;;;;;;;26.20;10.50;;;;;;;12.75;100.00;100391.31;110343;1275;23210;-75
2023/10/11 00:45:38;;;;;;;29.70;13.00;;;;;;;12.75;100.00;100390.23;110386;1270;22271;-75
2023/10/11 00:48:11;;;;;;;26.50;10.10;;;;;;;12.75;100.00;100391.27;110377;1275;22197;-76
2023/10/11 00:50:43;;;;;;;26.70;11.00;;;;;;;12.75;100.00;100392.23;110377;1275;22308;-75
2023/10/11 00:53:15;;;;;;;25.10;10.90;;;;;;;12.75;100.00;100394.05;110395;1275;22168;-76
2023/10/11 00:55:46;;;;;;;24.00;10.60;;;;;;;12.76;100.00;100394.98;110378;1272;22280;-76
2023/10/11 00:58:18;;;;;;;21.70;10.00;;;;;;;12.76;100.00;100392.14;110396;1275;23514;-76
2023/10/11 01:00:49;;;;;;;22.50;9.60;;;;;;;12.77;100.00;100393.22;110387;1272;22312;-76
2023/10/11 01:03:22;;;;;;;23.90;10.60;;;;;;;12.77;100.00;100388.33;110405;1269;22305;-75
2023/10/11 01:05:55;;;;;;;26.50;12.00;;;;;;;12.77;100.00;100385.31;110373;1269;23030;-75
2023/10/11 01:08:26;;;;;;;25.70;12.50;;;;;;;12.75;100.00;100381.89;110404;1270;23028;-75
2023/10/11 01:10:57;;;;;;;25.00;9.90;;;;;;;12.73;100.00;100377.28;110359;1268;23161;-75
2023/10/11 01:13:28;;;;;;;25.10;11.40;;;;;;;12.72;100.00;100376.09;110398;1275;22242;-76
2023/10/11 01:16:00;;;;;;;22.20;10.30;;;;;;;12.72;100.00;100374.88;110390;1275;22163;-76
2023/10/11 01:18:30;;;;;;;25.50;11.90;;;;;;;12.72;100.00;100361.39;110402;1268;22620;-76
2023/10/11 01:21:03;;;;;;;23.70;11.00;;;;;;;12.73;100.00;100355.52;110374;1269;23013;-76
2023/10/11 01:23:34;;;;;;;23.50;10.30;;;;;;;12.73;100.00;100351.52;110385;1275;22385;-76
2023/10/11 01:26:07;;;;;;;21.30;11.10;;;;;;;12.74;100.00;100350.20;110396;1275;22472;-75
2023/10/11 01:28:40;;;;;;;26.50;11.00;;;;;;;12.74;100.00;100353.96;110402;1267;22278;-75
2023/10/11 01:31:12;;;;;;;23.70;11.10;;;;;;;12.73;100.00;100352.31;110391;1269;22231;-76
2023/10/11 01:33:46;;;;;;;26.60;11.20;;;;;;;12.74;100.00;100357.33;110200;1275;235909;-76
2023/10/11 01:36:20;;;;;;;24.30;11.00;;;;;;;12.74;100.00;100349.70;110400;1269;23010;-75
2023/10/11 01:38:51;;;;;;;24.60;11.50;;;;;;;12.74;100.00;100347.76;110370;1269;22244;-76
2023/10/11 01:41:25;;;;;;;25.60;11.70;;;;;;;12.74;100.00;100347.70;110384;1269;22392;-75
2023/10/11 01:43:57;;;;;;;22.40;9.90;;;;;;;12.75;100.00;100347.66;110361;1268;22379;-76
2023/10/11 01:46:32;;;;;;;22.40;10.40;;;;;;;12.75;100.00;100345.16;110392;1268;22178;-76
2023/10/11 01:49:07;;;;;;;26.80;12.30;;;;;;;12.76;100.00;100345.02;110382;1267;22156;-76
2023/10/11 01:51:39;;;;;;;23.60;9.00;;;;;;;12.76;100.00;100343.96;110364;1269;22178;-76
2023/10/11 01:54:10;;;;;;;24.30;10.90;;;;;;;12.76;100.00;100342.84;110430;1269;22172;-76
2023/10/11 01:56:41;;;;;;;28.80;10.30;;;;;;;12.77;100.00;100346.81;110374;1265;22403;-76
2023/10/11 01:59:12;;;;;;;24.50;11.10;;;;;;;12.77;100.00;100347.77;110375;1269;22213;-76
2023/10/11 02:01:54;;;;;;;25.50;10.80;;;;;;;12.77;100.00;100349.45;110391;1269;22295;-75
2023/10/11 02:04:25;;;;;;;21.90;11.00;;;;;;;12.76;100.00;100345.58;110393;1269;22380;-76
2023/10/11 02:06:57;;;;;;;28.50;12.00;;;;;;;12.75;99.99;100344.05;110395;1268;22876;-75
2023/10/11 02:09:27;;;;;;;26.70;11.30;;;;;;;12.75;99.98;100349.07;110388;1275;22153;-76
2023/10/11 02:11:58;;;;;;;22.00;11.20;;;;;;;12.75;99.98;100352.70;110385;1275;22305;-75
2023/10/11 02:14:31;;;;;;;22.60;10.30;;;;;;;12.74;99.96;100349.08;110415;1275;22216;-76
2023/10/11 02:17:04;;;;;;;24.40;10.60;;;;;;;12.73;99.88;100351.20;110363;1269;22388;-76
2023/10/11 02:19:35;;;;;;;27.90;10.90;;;;;;;12.73;99.96;100346.51;110376;1275;22302;-75
2023/10/11 02:22:10;;;;;;;24.00;11.40;;;;;;;12.72;99.90;100341.11;110382;1269;22243;-76
2023/10/11 02:24:41;;;;;;;21.50;10.60;;;;;;;12.72;99.89;100336.48;110346;1269;22507;-76
2023/10/11 02:27:17;;;;;;;22.00;10.80;;;;;;;12.71;99.93;100337.48;110374;1275;23089;-75
2023/10/11 02:29:48;;;;;;;22.30;9.90;;;;;;;12.69;99.86;100336.84;110376;1275;22329;-75
2023/10/11 02:32:19;;;;;;;21.30;10.30;;;;;;;12.69;99.79;100335.21;110389;1267;23392;-75
2023/10/11 02:34:50;;;;;;;22.30;9.60;;;;;;;12.67;99.72;100336.92;110404;1268;22180;-76
2023/10/11 02:37:22;;;;;;;26.10;10.30;;;;;;;12.66;99.62;100334.52;110405;1275;22449;-75
2023/10/11 02:39:52;;;;;;;19.80;9.10;;;;;;;12.64;99.46;100329.48;110383;1275;22404;-75
2023/10/11 02:42:26;;;;;;;22.30;8.90;;;;;;;12.63;99.37;100330.91;110408;1269;22424;-75
2023/10/11 02:45:05;;;;;;;21.10;9.30;;;;;;;12.62;99.26;100332.67;110414;1268;22489;-76
2023/10/11 02:47:36;;;;;;;22.90;8.80;;;;;;;12.60;99.15;100331.84;110369;1268;22230;-76
2023/10/11 02:50:09;;;;;;;23.50;9.70;;;;;;;12.59;99.05;100326.38;110390;1269;22257;-76
2023/10/11 02:52:42;;;;;;;19.40;9.10;;;;;;;12.57;99.01;100326.15;110396;1275;22501;-75
2023/10/11 02:55:20;;;;;;;21.30;9.30;;;;;;;12.55;98.91;100326.84;110375;1269;22200;-75
2023/10/11 02:58:05;;;;;;;20.40;9.60;;;;;;;12.53;98.85;100328.09;110416;1274;23262;-76
2023/10/11 03:00:37;;;;;;;24.00;8.80;;;;;;;12.51;98.87;100325.01;110383;1269;22164;-75
2023/10/11 03:03:10;;;;;;;19.40;9.20;;;;;;;12.50;98.95;100327.94;110368;1272;22908;-75
2023/10/11 03:05:42;;;;;;;20.30;8.80;;;;;;;12.48;98.72;100325.89;110388;1268;22306;-76
2023/10/11 03:08:17;;;;;;;20.30;9.10;;;;;;;12.46;98.61;100321.63;110421;1274;22246;-76
2023/10/11 03:10:54;;;;;;;22.40;9.50;;;;;;;12.43;98.68;100321.55;110383;1269;22305;-75
2023/10/11 03:13:29;;;;;;;18.50;7.40;;;;;;;12.41;98.55;100326.09;110354;1274;22273;-76
2023/10/11 03:16:01;;;;;;;17.10;7.10;;;;;;;12.37;98.51;100323.05;110369;1269;22301;-75
2023/10/11 03:18:32;;;;;;;19.80;8.70;;;;;;;12.35;98.42;100320.77;110408;1272;22158;-76
2023/10/11 03:21:17;;;;;;;20.80;8.70;;;;;;;12.33;98.40;100316.64;110353;1275;22336;-76
2023/10/11 03:23:54;;;;;;;23.70;9.30;;;;;;;12.31;98.36;100315.38;110413;1272;22369;-76
2023/10/11 03:26:31;;;;;;;27.70;8.70;;;;;;;12.29;98.45;100317.84;110374;1269;22871;-76
2023/10/11 03:29:04;;;;;;;20.10;9.30;;;;;;;12.27;98.42;100315.38;110398;1269;22403;-75
2023/10/11 03:31:40;;;;;;;21.50;8.30;;;;;;;12.25;98.47;100312.15;110325;1268;22212;-75
2023/10/11 03:34:11;;;;;;;22.60;9.90;;;;;;;12.23;98.55;100314.02;110394;1269;22881;-75
2023/10/11 03:36:50;;;;;;;24.30;8.10;;;;;;;12.22;98.50;100315.21;110407;1275;22398;-75
2023/10/11 03:39:28;;;;;;;23.10;8.60;;;;;;;12.19;98.50;100311.52;110395;1270;22326;-75
2023/10/11 03:42:07;;;;;;;19.90;8.10;;;;;;;12.18;98.61;100313.64;110430;1269;22373;-75
2023/10/11 03:44:40;;;;;;;21.60;8.30;;;;;;;12.17;98.42;100308.70;110418;1269;23386;-75
2023/10/11 03:47:14;;;;;;;20.00;9.00;;;;;;;12.16;98.34;100304.50;110383;1269;22395;-75
2023/10/11 03:49:51;;;;;;;21.60;9.10;;;;;;;12.15;98.46;100305.91;110440;1275;22304;-75
2023/10/11 03:52:24;;;;;;;21.70;9.10;;;;;;;12.14;98.44;100301.48;110448;1275;22312;-76
2023/10/11 03:55:05;;;;;;;21.90;10.10;;;;;;;12.13;98.42;100304.86;110616;1272;22215;-75
2023/10/11 03:57:36;;;;;;;20.00;8.60;;;;;;;12.11;98.48;100302.80;110579;1269;22317;-74
2023/10/11 04:00:24;;;;;;;22.20;8.30;;;;;;;12.09;98.31;100293.92;110454;1275;22262;-75
2023/10/11 04:02:58;;;;;;;21.60;9.20;;;;;;;12.08;98.41;100292.14;110363;1269;22341;-75
2023/10/11 04:05:34;;;;;;;21.00;9.60;;;;;;;12.07;98.28;100293.28;110397;1268;22203;-75
2023/10/11 04:08:06;;;;;;;21.00;9.70;;;;;;;12.06;98.42;100290.88;110374;1269;22354;-75
2023/10/11 04:10:39;;;;;;;21.30;9.00;;;;;;;12.04;98.39;100291.11;110418;1269;22149;-75
2023/10/11 04:13:14;;;;;;;23.00;10.00;;;;;;;12.03;98.43;100292.48;110395;1269;22360;-76
2023/10/11 04:15:49;;;;;;;24.50;9.40;;;;;;;12.02;98.50;100290.98;110350;1275;22345;-76
2023/10/11 04:18:33;;;;;;;22.90;9.40;;;;;;;12.01;98.40;100287.30;110403;1269;22332;-76
2023/10/11 04:23:56;;;;;;;21.10;9.10;;;;;;;11.98;98.32;100288.99;110249;1275;22396;-76
2023/10/11 04:26:37;;;;;;;25.00;8.80;;;;;;;11.97;98.18;100287.09;110369;1269;22226;-76
2023/10/11 04:29:17;;;;;;;22.60;8.80;;;;;;;11.94;98.31;100292.34;110358;1274;22170;-76
2023/10/11 04:32:09;;;;;;;19.20;8.80;;;;;;;11.93;98.30;100292.73;110383;1275;22138;-77
2023/10/11 04:34:47;;;;;;;24.80;9.20;;;;;;;11.92;98.38;100286.77;110362;1275;22424;-76
2023/10/11 04:37:27;;;;;;;20.60;8.50;;;;;;;11.93;98.35;100289.13;110342;1276;23041;-76
2023/10/11 04:40:16;;;;;;;24.70;9.50;;;;;;;11.93;98.61;100288.71;110363;1273;22369;-76
2023/10/11 04:43:04;;;;;;;18.40;8.10;;;;;;;11.93;98.41;100287.04;110451;1275;22173;-76
2023/10/11 04:45:44;;;;;;;20.80;9.10;;;;;;;11.93;98.54;100286.98;110387;1275;22195;-77
2023/10/11 04:48:18;;;;;;;25.50;10.00;;;;;;;11.93;98.52;100283.32;110444;1275;22336;-76
2023/10/11 04:50:50;;;;;;;25.70;8.90;;;;;;;11.93;98.54;100283.48;110404;1275;22203;-77
2023/10/11 04:53:27;;;;;;;26.80;10.00;;;;;;;11.92;98.41;100281.92;110409;1265;22395;-77
2023/10/11 04:56:15;;;;;;;;;;;;;;;11.91;98.34;100278.92;110441;1275;22452;-77
2023/10/11 04:58:50;;;;;;;22.00;9.30;;;;;;;11.89;98.46;100270.66;110417;1275;22881;-78
2023/10/11 05:01:23;;;;;;;20.00;7.20;;;;;;;11.89;98.34;100271.96;110345;1275;22221;-78
2023/10/11 05:03:59;;;;;;;21.60;9.20;;;;;;;11.88;98.34;100267.53;110417;1275;22332;-78
2023/10/11 05:06:31;;;;;;;21.20;9.20;;;;;;;11.87;98.50;100266.05;110408;1269;22885;-76
2023/10/11 05:09:13;;;;;;;22.40;8.90;;;;;;;11.87;98.48;100262.64;110364;1275;23255;-76
2023/10/11 05:11:44;;;;;;;22.50;8.80;;;;;;;11.87;98.65;100260.40;110409;1269;22203;-77
2023/10/11 05:14:30;;;;;;;25.50;9.40;;;;;;;11.88;98.57;100258.98;110409;1275;22159;-76
2023/10/11 05:17:16;;;;;;;25.40;11.70;;;;;;;11.88;98.85;100258.98;110389;1275;22132;-75
2023/10/11 05:19:56;;;;;;;27.40;11.70;;;;;;;11.89;99.09;100264.14;110270;1275;22159;-76
2023/10/11 05:22:42;;;;;;;25.40;10.20;;;;;;;11.90;99.10;100266.85;110419;1275;22339;-76
2023/10/11 05:25:37;;;;;;;27.50;10.10;;;;;;;11.91;99.21;100270.13;110407;1275;22182;-75
2023/10/11 05:34:12;;;;;;;23.70;8.90;;;;;;;11.93;99.20;100277.63;109982;1280;22202;-75
2023/10/11 05:50:50;;;;;;;27.20;10.20;;;;;;;11.93;99.24;100278.34;109924;1280;22145;-75
2023/10/11 05:50:57;;;;;;;38.70;14.60;;;;;;;12.00;99.37;100287.29;109946;1280;22181;-75
2023/10/11 05:53:29;;;;;;;65.80;22.20;;;;;;;12.01;99.37;100284.96;109964;1280;22234;-75
2023/10/11 05:56:02;;;;;;;75.20;26.10;;;;;;;12.03;99.73;100286.52;109950;1281;22998;-75
2023/10/11 05:58:34;;;;;;;86.70;30.40;;;;;;;12.06;99.76;100284.73;109953;1280;23199;-75
2023/10/11 06:01:11;;;;;;;81.70;29.50;;;;;;;12.07;99.89;100278.80;109925;1280;23100;-75
2023/10/11 06:03:44;;;;;;;73.70;25.60;;;;;;;12.09;99.98;100277.44;109996;1280;22170;-75
2023/10/11 06:06:26;;;;;;;48.90;16.90;;;;;;;12.13;100.00;100274.95;110009;1280;23182;-74
2023/10/11 06:08:57;;;;;;;44.70;15.00;;;;;;;12.19;100.00;100273.05;110264;1275;22258;-75
2023/10/11 06:11:36;;;;;;;49.70;14.90;;;;;;;12.27;100.00;100269.98;110404;1263;22152;-75
2023/10/11 06:14:07;;;;;;;40.00;14.00;;;;;;;12.33;100.00;100274.14;110392;1275;22330;-75
2023/10/11 06:16:43;;;;;;;30.00;10.70;;;;;;;12.39;100.00;100272.63;110421;1275;22210;-75
2023/10/11 06:19:17;;;;;;;30.20;9.80;;;;;;;12.46;100.00;100273.28;110422;1275;22972;-75
2023/10/11 06:21:57;;;;;;;23.50;8.50;;;;;;;12.56;100.00;100272.32;110389;1273;22798;-75
2023/10/11 06:24:30;;;;;;;28.10;7.20;;;;;;;12.64;100.00;100266.16;110389;1275;22231;-75
2023/10/11 06:28:09;;;;;;;23.40;7.40;;;;;;;12.75;100.00;100268.00;110418;1263;22348;-74
2023/10/11 06:30:09;;;;;;;22.60;7.30;;;;;;;12.87;100.00;100264.45;110378;1260;22385;-74
2023/10/11 06:32:42;;;;;;;17.70;6.20;;;;;;;12.97;100.00;100257.07;110430;1259;22849;-76
2023/10/11 06:35:23;;;;;;;18.60;6.40;;;;;;;13.09;100.00;100257.27;110420;1273;22288;-76
2023/10/11 06:37:55;;;;;;;20.80;6.20;;;;;;;13.20;100.00;100254.45;110397;1272;22272;-74
2023/10/11 06:40:38;;;;;;;19.00;6.30;;;;;;;13.29;100.00;100254.77;110402;1275;22150;-75
2023/10/11 06:43:12;;;;;;;20.80;6.30;;;;;;;13.40;100.00;100255.68;110401;1275;22375;-75
2023/10/11 06:45:43;;;;;;;18.30;5.70;;;;;;;13.50;100.00;100253.92;110363;1275;22845;-75
2023/10/11 06:48:14;;;;;;;16.60;5.90;;;;;;;13.58;100.00;100249.64;110390;1275;22989;-76
2023/10/11 06:50:46;;;;;;;18.10;5.70;;;;;;;13.65;100.00;100245.88;110360;1275;22140;-75
2023/10/11 06:53:17;;;;;;;19.70;5.30;;;;;;;13.73;100.00;100246.09;110372;1275;22906;-75
2023/10/11 06:55:50;;;;;;;19.90;6.00;;;;;;;13.81;100.00;100244.09;110394;1275;22369;-74
2023/10/11 06:58:21;;;;;;;16.50;6.20;;;;;;;13.90;100.00;100247.55;110380;1275;22241;-76
2023/10/11 07:00:53;;;;;;;18.00;5.90;;;;;;;13.99;100.00;100245.71;110375;1275;22829;-77
2023/10/11 07:03:27;;;;;;;19.00;5.00;;;;;;;14.10;100.00;100246.27;110398;1275;22151;-75
2023/10/11 07:06:10;;;;;;;16.90;5.80;;;;;;;14.20;100.00;100248.22;110385;1275;22282;-74
2023/10/11 07:08:50;;;;;;;17.00;5.40;;;;;;;14.31;100.00;100245.88;110373;1275;22997;-74
2023/10/11 07:14:15;;;;;;;18.30;5.80;;;;;;;14.51;100.00;100246.92;110382;1275;23377;-74
2023/10/11 07:16:47;;;;;;;17.90;5.00;;;;;;;14.61;100.00;100244.10;110398;1275;22202;-74
2023/10/11 07:19:19;;;;;;;22.10;5.40;;;;;;;14.70;100.00;100245.77;110387;1275;22324;-74
2023/10/11 07:21:52;;;;;;;18.80;4.80;;;;;;;14.79;100.00;100239.85;110394;1275;23136;-74
2023/10/11 07:24:33;;;;;;;18.90;4.90;;;;;;;14.86;100.00;100239.91;110413;1275;23104;-74
2023/10/11 07:27:12;;;;;;;16.40;4.80;;;;;;;14.96;100.00;100241.77;110406;1275;22360;-74
2023/10/11 07:29:45;;;;;;;18.00;4.30;;;;;;;15.06;100.00;100240.23;110432;1275;23482;-74
2023/10/11 07:32:18;;;;;;;18.00;4.80;;;;;;;15.13;100.00;100234.32;110399;1268;22320;-74
2023/10/11 07:34:49;;;;;;;17.50;5.40;;;;;;;15.23;100.00;100237.23;110421;1275;22379;-74
2023/10/11 07:37:26;;;;;;;15.70;3.80;;;;;;;15.35;100.00;100243.69;110395;1265;22183;-74
2023/10/11 07:40:08;;;;;;;13.90;3.60;;;;;;;15.47;100.00;100242.05;110387;1275;22186;-74
2023/10/11 07:42:39;;;;;;;16.00;3.80;;;;;;;15.58;100.00;100245.18;110444;1275;22131;-75
2023/10/11 07:45:13;;;;;;;15.20;3.70;;;;;;;15.69;100.00;100243.00;110471;1272;22147;-74
2023/10/11 07:47:45;;;;;;;18.90;4.40;;;;;;;15.78;100.00;100238.34;109067;1275;26543;-74
2023/10/11 07:50:22;;;;;;;10.70;3.30;;;;;;;15.86;100.00;100239.48;110382;1275;22138;-74
2023/10/11 07:52:53;;;;;;;22.60;4.30;;;;;;;15.95;100.00;100234.20;110455;1272;22192;-74
2023/10/11 07:55:26;;;;;;;19.70;4.20;;;;;;;16.04;100.00;100231.86;110429;1275;23500;-74
2023/10/11 07:58:01;;;;;;;20.00;4.20;;;;;;;16.13;100.00;100233.21;110413;1275;22307;-74
2023/10/11 08:00:32;;;;;;;15.70;3.60;;;;;;;16.20;100.00;100233.44;110378;1275;23149;-74
2023/10/11 08:03:04;;;;;;;11.80;2.60;;;;;;;16.30;100.00;100235.61;110400;1275;22357;-74
2023/10/11 08:05:44;;;;;;;12.90;2.60;;;;;;;16.39;100.00;100237.15;110402;1275;22224;-74
2023/10/11 08:08:20;;;;;;;16.00;3.30;;;;;;;16.47;99.95;100237.92;110419;1275;22173;-74
2023/10/11 08:10:52;;;;;;;20.40;4.10;;;;;;;16.52;99.76;100232.77;110379;1275;22135;-75
2023/10/11 08:13:25;;;;;;;16.40;3.60;;;;;;;16.57;99.50;100236.54;110425;1275;22303;-74
2023/10/11 08:15:57;;;;;;;18.10;3.20;;;;;;;16.62;99.32;100233.32;110420;1275;22165;-74
2023/10/11 08:18:29;;;;;;;15.30;3.10;;;;;;;16.68;99.32;100234.07;110396;1276;22165;-74
2023/10/11 08:21:00;;;;;;;13.90;3.80;;;;;;;16.73;99.25;100234.73;110407;1275;22185;-74
2023/10/11 08:23:31;;;;;;;18.20;3.40;;;;;;;16.80;98.89;100238.35;110432;1260;23140;-74
2023/10/11 08:26:05;;;;;;;15.90;3.50;;;;;;;16.88;98.62;100236.08;110383;1275;23025;-74
2023/10/11 08:28:46;;;;;;;13.60;3.20;;;;;;;16.96;98.27;100232.60;110385;1276;23059;-74
2023/10/11 08:31:29;;;;;;;21.30;4.50;;;;;;;17.05;98.05;100230.89;110397;1273;22251;-74
2023/10/11 08:34:00;;;;;;;16.00;3.40;;;;;;;17.16;97.75;100230.23;110448;1272;22338;-74
2023/10/11 08:36:33;;;;;;;12.60;3.10;;;;;;;17.25;97.42;100221.70;110422;1275;22192;-74
2023/10/11 08:39:06;;;;;;;12.30;3.00;;;;;;;17.34;97.00;100221.23;110446;1275;23116;-74
2023/10/11 08:41:43;;;;;;;16.50;3.40;;;;;;;17.45;96.88;100218.19;110411;1275;22170;-74
2023/10/11 08:44:20;;;;;;;15.50;3.70;;;;;;;17.55;96.27;100217.77;110394;1275;22236;-74
2023/10/11 08:46:53;;;;;;;14.80;3.10;;;;;;;17.61;96.06;100214.10;110426;1275;22277;-74
2023/10/11 08:49:24;;;;;;;15.30;4.30;;;;;;;17.68;95.75;100212.35;110416;1274;22260;-75
2023/10/11 08:51:59;;;;;;;15.10;3.20;;;;;;;17.74;95.74;100211.46;110415;1275;22150;-74
2023/10/11 08:54:31;;;;;;;12.20;2.80;;;;;;;17.81;95.51;100215.34;110435;1275;22143;-74
2023/10/11 08:57:03;;;;;;;13.00;2.60;;;;;;;17.90;95.38;100216.53;110361;1275;23117;-74
2023/10/11 08:59:44;;;;;;;18.10;3.60;;;;;;;17.96;94.94;100219.54;110395;1275;22388;-74
2023/10/11 09:02:17;;;;;;;16.50;3.30;;;;;;;18.03;94.73;100216.11;110400;1275;23227;-74
2023/10/11 09:05:06;;;;;;;15.40;3.30;;;;;;;18.08;94.38;100212.21;110402;1275;22146;-74
2023/10/11 09:07:39;;;;;;;10.90;2.70;;;;;;;18.14;93.89;100210.89;110393;1275;23032;-74
2023/10/11 09:10:25;;;;;;;14.30;2.70;;;;;;;18.20;93.87;100209.59;110382;1265;22152;-75
2023/10/11 09:12:57;;;;;;;14.40;3.30;;;;;;;18.24;93.08;100210.52;110407;1275;22191;-74
2023/10/11 09:15:42;;;;;;;14.50;3.20;;;;;;;18.29;93.17;100217.23;110372;1260;22891;-74
2023/10/11 09:18:17;;;;;;;15.00;2.90;;;;;;;18.34;93.18;100212.34;110407;1275;22215;-74
2023/10/11 09:20:55;;;;;;;17.30;4.30;;;;;;;18.39;92.99;100213.39;110411;1275;22894;-74
2023/10/11 09:23:36;;;;;;;16.90;3.80;;;;;;;18.46;92.83;100213.91;110415;1275;22974;-75
2023/10/11 09:26:08;;;;;;;18.80;4.40;;;;;;;18.53;92.11;100213.76;110410;1275;22162;-74
2023/10/11 09:28:41;;;;;;;17.90;4.60;;;;;;;18.60;91.95;100215.58;110390;1275;22202;-74
2023/10/11 09:31:16;;;;;;;15.20;3.60;;;;;;;18.65;91.49;100207.98;110424;1275;22702;-74
2023/10/11 09:33:50;;;;;;;15.60;3.60;;;;;;;18.70;91.25;100203.48;110437;1275;22652;-74
2023/10/11 09:36:24;;;;;;;12.00;3.00;;;;;;;18.77;91.35;100202.31;110414;1275;22563;-74
2023/10/11 09:38:55;;;;;;;16.90;4.00;;;;;;;18.85;91.11;100202.23;110411;1275;22186;-74
2023/10/11 09:41:38;;;;;;;17.30;3.20;;;;;;;18.96;91.04;100196.58;110395;1275;22541;-74
2023/10/11 09:44:10;;;;;;;16.50;2.80;;;;;;;19.06;90.60;100204.02;110423;1275;23350;-74
2023/10/11 09:46:43;;;;;;;16.30;3.00;;;;;;;19.17;90.29;100199.16;110415;1275;22823;-74
2023/10/11 09:49:15;;;;;;;14.00;3.00;;;;;;;19.29;89.91;100200.24;110390;1275;22227;-75
2023/10/11 09:51:46;;;;;;;13.60;2.70;;;;;;;19.39;88.48;100203.14;110378;1275;22464;-75
2023/10/11 09:54:17;;;;;;;13.80;2.30;;;;;;;19.45;87.89;100202.92;110403;1275;22190;-75
2023/10/11 09:56:52;;;;;;;13.10;2.80;;;;;;;19.51;87.97;100207.56;110407;1269;22236;-75
2023/10/11 09:59:34;;;;;;;16.30;2.70;;;;;;;19.54;87.48;100206.78;110398;1275;22299;-75
2023/10/11 10:02:10;;;;;;;11.40;2.40;;;;;;;19.58;87.09;100207.64;110426;1272;22718;-75
2023/10/11 10:05:04;;;;;;;14.60;2.70;;;;;;;19.62;86.67;100204.52;110459;1275;22895;-75
2023/10/11 10:07:44;;;;;;;13.20;3.40;;;;;;;19.67;86.39;100202.67;110391;1275;23107;-75
2023/10/11 10:10:16;;;;;;;26.90;3.40;;;;;;;19.73;86.29;100208.96;110373;1275;22100;-75
2023/10/11 10:12:59;;;;;;;18.00;2.70;;;;;;;19.76;85.60;100211.42;110402;1275;22161;-75
2023/10/11 10:15:32;;;;;;;14.30;2.30;;;;;;;19.80;85.29;100220.67;110410;1275;22147;-75
2023/10/11 10:18:23;;;;;;;18.90;3.00;;;;;;;19.84;84.98;100223.83;110375;1275;22363;-75
2023/10/11 10:21:03;;;;;;;18.60;3.60;;;;;;;19.89;84.93;100225.70;110370;1275;22152;-75
2023/10/11 10:23:37;;;;;;;13.80;2.40;;;;;;;19.93;84.96;100226.23;110403;1275;22647;-75
2023/10/11 10:26:30;;;;;;;11.90;2.50;;;;;;;19.98;84.69;100223.16;110428;1275;22614;-75
2023/10/11 10:29:01;;;;;;;18.50;3.40;;;;;;;20.02;84.32;100216.88;110375;1275;22282;-75
2023/10/11 10:31:33;;;;;;;16.40;3.10;;;;;;;20.07;84.06;100219.37;110398;1275;22352;-75
2023/10/11 10:34:29;;;;;;;19.00;2.70;;;;;;;20.12;83.49;100220.50;110407;1275;22333;-75
2023/10/11 10:37:06;;;;;;;17.60;3.00;;;;;;;20.21;82.66;100219.53;110393;1275;22229;-75
2023/10/11 10:39:48;;;;;;;16.30;3.30;;;;;;;20.28;82.28;100216.36;110385;1275;22886;-75
2023/10/11 10:42:19;;;;;;;16.30;3.10;;;;;;;20.34;81.65;100211.94;110412;1273;23054;-75
2023/10/11 10:44:53;;;;;;;14.00;2.50;;;;;;;20.38;81.27;100213.87;110447;1275;22195;-75
2023/10/11 10:47:31;;;;;;;19.40;3.20;;;;;;;20.39;80.55;100215.74;110400;1275;22187;-75
2023/10/11 10:50:21;;;;;;;11.90;2.00;;;;;;;20.41;80.61;100214.16;110414;1275;22321;-75
2023/10/11 10:52:54;;;;;;;11.50;2.40;;;;;;;20.40;79.99;100211.66;110429;1275;22227;-76
2023/10/11 10:55:34;;;;;;;17.10;2.80;;;;;;;20.41;80.14;100206.08;110379;1275;22132;-75
2023/10/11 10:58:06;;;;;;;18.20;2.90;;;;;;;20.42;80.17;100206.92;110418;1275;22393;-75
2023/10/11 11:00:40;;;;;;;22.80;2.80;;;;;;;20.44;80.20;100199.91;110410;1275;22218;-75
2023/10/11 11:03:21;;;;;;;14.10;3.20;;;;;;;20.47;80.06;100203.20;110425;1275;22385;-76
2023/10/11 11:06:02;;;;;;;13.90;2.30;;;;;;;20.49;79.96;100201.92;110392;1275;22465;-75
2023/10/11 11:08:37;;;;;;;14.90;2.40;;;;;;;20.53;79.78;100199.92;110403;1275;22214;-75
2023/10/11 11:11:25;;;;;;;19.40;3.10;;;;;;;20.56;79.57;100194.43;110383;1265;22132;-75
2023/10/11 11:13:56;;;;;;;15.30;2.80;;;;;;;20.63;79.36;100194.59;110432;1272;22277;-75
2023/10/11 11:16:27;;;;;;;13.60;2.60;;;;;;;20.73;79.01;100190.09;110366;1275;23021;-74
2023/10/11 11:19:00;;;;;;;13.60;3.20;;;;;;;20.83;78.75;100187.93;110372;1275;22193;-75
2023/10/11 11:21:31;;;;;;;16.20;2.90;;;;;;;20.92;78.30;100183.18;110378;1265;22935;-75
2023/10/11 11:24:21;;;;;;;13.00;2.50;;;;;;;21.01;77.86;100177.88;110414;1275;22343;-76
2023/10/11 11:26:52;;;;;;;;;;;;;;;21.10;77.36;100177.35;110297;1276;22464;-75
2023/10/11 11:29:35;;;;;;;14.60;2.40;;;;;;;21.16;76.21;100178.59;110391;1275;22273;-75
2023/10/11 11:32:14;;;;;;;12.20;1.80;;;;;;;21.20;75.79;100185.05;110383;1275;22355;-75
2023/10/11 11:35:02;;;;;;;14.00;2.30;;;;;;;21.21;75.78;100179.39;110440;1275;22497;-75
2023/10/11 11:37:38;;;;;;;14.10;2.50;;;;;;;21.22;75.56;100172.50;110466;1275;22419;-75
2023/10/11 11:40:24;;;;;;;11.10;2.70;;;;;;;21.25;75.28;100172.27;110492;1272;22943;-75
2023/10/11 11:42:54;;;;;;;9.90;2.30;;;;;;;21.27;74.88;100161.80;110472;1275;22990;-75
2023/10/11 11:45:35;;;;;;;11.80;2.60;;;;;;;21.27;74.09;100157.70;110395;1275;22243;-75
2023/10/11 11:48:06;;;;;;;13.00;2.70;;;;;;;21.29;73.85;100155.03;110396;1275;22142;-75
2023/10/11 11:50:38;;;;;;;18.60;2.60;;;;;;;21.31;73.47;100155.65;110397;1275;22186;-76
2023/10/11 11:53:09;;;;;;;14.50;2.30;;;;;;;21.34;73.45;100150.55;110440;1275;22146;-76
2023/10/11 11:55:41;;;;;;;12.70;2.40;;;;;;;21.33;73.16;100150.64;110424;1275;22165;-76
2023/10/11 11:58:16;;;;;;;13.90;2.60;;;;;;;21.32;72.63;100145.55;110420;1275;22588;-75
2023/10/11 12:00:59;;;;;;;12.00;2.80;;;;;;;21.30;72.65;100142.05;110377;1275;22203;-76
2023/10/11 12:03:36;;;;;;;16.40;3.10;;;;;;;21.28;72.65;100139.77;110375;1275;22163;-75
2023/10/11 12:06:21;;;;;;;16.30;2.30;;;;;;;21.29;72.31;100149.69;110355;1268;22277;-75